sensor_id;sensor_type;location;lat;lon;timestamp;P1;durP1;ratioP1;P2;durP2;ratioP2
27857;SDS011;16852;51.446;6.528;2023-04-10T00:00:28;16.65;;;8.75;;
27857;SDS011;16852;51.446;6.528;2023-04-10T00:02:30;10.32;;;7.75;;
27857;SDS011;16852;51.446;6.528;2023-04-10T00:04:31;10.73;;;7.13;;
27857;SDS011;16852;51.446;6.528;2023-04-10T00:06:31;11.10;;;7.43;;
27857;SDS011;16852;51.446;6.528;2023-04-10T00:08:32;11.90;;;8.02;;
27857;SDS011;16852;51.446;6.528;2023-04-10T00:10:32;11.07;;;7.50;;
27857;SDS011;16852;51.446;6.528;2023-04-10T00:12:34;12.93;;;8.20;;
27857;SDS011;16852;51.446;6.528;2023-04-10T00:14:36;12.93;;;7.65;;
27857;SDS011;16852;51.446;6.528;2023-04-10T00:16:37;13.85;;;8.30;;
27857;SDS011;16852;51.446;6.528;2023-04-10T00:18:37;12.80;;;7.82;;
27857;SDS011;16852;51.446;6.528;2023-04-10T00:20:38;12.35;;;8.20;;
27857;SDS011;16852;51.446;6.528;2023-04-10T00:22:39;11.52;;;7.70;;
27857;SDS011;16852;51.446;6.528;2023-04-10T00:24:40;11.82;;;7.70;;
27857;SDS011;16852;51.446;6.528;2023-04-10T00:26:41;14.88;;;8.85;;
27857;SDS011;16852;51.446;6.528;2023-04-10T00:28:41;13.35;;;7.93;;
27857;SDS011;16852;51.446;6.528;2023-04-10T00:30:42;10.80;;;7.68;;
27857;SDS011;16852;51.446;6.528;2023-04-10T00:32:43;13.50;;;8.30;;
27857;SDS011;16852;51.446;6.528;2023-04-10T00:34:43;12.85;;;7.30;;
27857;SDS011;16852;51.446;6.528;2023-04-10T00:36:44;10.85;;;7.78;;
27857;SDS011;16852;51.446;6.528;2023-04-10T00:38:46;13.82;;;8.85;;
27857;SDS011;16852;51.446;6.528;2023-04-10T00:40:48;11.90;;;7.93;;
27857;SDS011;16852;51.446;6.528;2023-04-10T00:42:49;12.93;;;8.27;;
27857;SDS011;16852;51.446;6.528;2023-04-10T00:44:50;14.50;;;9.35;;
27857;SDS011;16852;51.446;6.528;2023-04-10T00:46:50;14.80;;;8.70;;
27857;SDS011;16852;51.446;6.528;2023-04-10T00:48:51;11.55;;;7.55;;
27857;SDS011;16852;51.446;6.528;2023-04-10T00:50:53;14.82;;;9.10;;
27857;SDS011;16852;51.446;6.528;2023-04-10T00:52:53;13.52;;;8.65;;
27857;SDS011;16852;51.446;6.528;2023-04-10T00:54:56;11.85;;;7.80;;
27857;SDS011;16852;51.446;6.528;2023-04-10T00:56:57;11.20;;;7.78;;
27857;SDS011;16852;51.446;6.528;2023-04-10T00:58:58;12.63;;;8.63;;
27857;SDS011;16852;51.446;6.528;2023-04-10T01:00:58;10.50;;;7.57;;
27857;SDS011;16852;51.446;6.528;2023-04-10T01:02:59;12.02;;;7.88;;
27857;SDS011;16852;51.446;6.528;2023-04-10T01:05:00;13.93;;;8.27;;
27857;SDS011;16852;51.446;6.528;2023-04-10T01:07:20;12.52;;;8.10;;
27857;SDS011;16852;51.446;6.528;2023-04-10T01:09:46;10.52;;;7.40;;
27857;SDS011;16852;51.446;6.528;2023-04-10T01:12:31;10.27;;;7.38;;
27857;SDS011;16852;51.446;6.528;2023-04-10T01:19:06;11.40;;;7.68;;
27857;SDS011;16852;51.446;6.528;2023-04-10T01:21:22;13.88;;;9.32;;
27857;SDS011;16852;51.446;6.528;2023-04-10T01:25:58;13.85;;;8.70;;
27857;SDS011;16852;51.446;6.528;2023-04-10T01:30:10;12.23;;;8.65;;
27857;SDS011;16852;51.446;6.528;2023-04-10T01:32:16;11.27;;;7.95;;
27857;SDS011;16852;51.446;6.528;2023-04-10T01:34:21;10.45;;;7.40;;
27857;SDS011;16852;51.446;6.528;2023-04-10T01:36:31;11.32;;;7.80;;
27857;SDS011;16852;51.446;6.528;2023-04-10T01:38:45;11.75;;;7.38;;
27857;SDS011;16852;51.446;6.528;2023-04-10T01:40:49;11.00;;;7.95;;
27857;SDS011;16852;51.446;6.528;2023-04-10T01:42:54;12.18;;;8.30;;
27857;SDS011;16852;51.446;6.528;2023-04-10T01:44:55;12.73;;;8.60;;
27857;SDS011;16852;51.446;6.528;2023-04-10T01:46:57;13.68;;;8.73;;
27857;SDS011;16852;51.446;6.528;2023-04-10T01:48:59;12.93;;;8.35;;
27857;SDS011;16852;51.446;6.528;2023-04-10T01:51:02;10.60;;;7.45;;
27857;SDS011;16852;51.446;6.528;2023-04-10T01:53:05;13.68;;;8.52;;
27857;SDS011;16852;51.446;6.528;2023-04-10T01:55:06;12.65;;;8.80;;
27857;SDS011;16852;51.446;6.528;2023-04-10T01:57:08;12.52;;;8.05;;
27857;SDS011;16852;51.446;6.528;2023-04-10T01:59:10;10.45;;;7.65;;
27857;SDS011;16852;51.446;6.528;2023-04-10T02:01:16;11.82;;;7.93;;
27857;SDS011;16852;51.446;6.528;2023-04-10T02:03:18;11.05;;;7.43;;
27857;SDS011;16852;51.446;6.528;2023-04-10T02:05:19;12.63;;;7.38;;
27857;SDS011;16852;51.446;6.528;2023-04-10T02:07:26;13.50;;;8.32;;
27857;SDS011;16852;51.446;6.528;2023-04-10T02:09:46;10.57;;;7.63;;
27857;SDS011;16852;51.446;6.528;2023-04-10T02:12:08;11.73;;;7.63;;
27857;SDS011;16852;51.446;6.528;2023-04-10T02:14:12;10.63;;;7.78;;
27857;SDS011;16852;51.446;6.528;2023-04-10T02:16:16;10.60;;;7.32;;
27857;SDS011;16852;51.446;6.528;2023-04-10T02:18:18;10.73;;;7.32;;
27857;SDS011;16852;51.446;6.528;2023-04-10T02:20:21;10.73;;;7.22;;
27857;SDS011;16852;51.446;6.528;2023-04-10T02:22:22;10.90;;;7.32;;
27857;SDS011;16852;51.446;6.528;2023-04-10T02:24:24;11.00;;;7.63;;
27857;SDS011;16852;51.446;6.528;2023-04-10T02:26:25;12.43;;;7.88;;
27857;SDS011;16852;51.446;6.528;2023-04-10T02:28:26;11.98;;;8.63;;
27857;SDS011;16852;51.446;6.528;2023-04-10T02:30:26;11.52;;;7.90;;
27857;SDS011;16852;51.446;6.528;2023-04-10T02:32:28;10.18;;;7.50;;
27857;SDS011;16852;51.446;6.528;2023-04-10T02:34:29;13.18;;;8.25;;
27857;SDS011;16852;51.446;6.528;2023-04-10T02:36:30;10.43;;;7.55;;
27857;SDS011;16852;51.446;6.528;2023-04-10T02:38:31;11.68;;;7.97;;
27857;SDS011;16852;51.446;6.528;2023-04-10T02:40:32;13.23;;;8.27;;
27857;SDS011;16852;51.446;6.528;2023-04-10T02:42:32;12.88;;;8.48;;
27857;SDS011;16852;51.446;6.528;2023-04-10T02:44:33;12.75;;;8.18;;
27857;SDS011;16852;51.446;6.528;2023-04-10T02:46:34;11.07;;;7.97;;
27857;SDS011;16852;51.446;6.528;2023-04-10T02:48:35;12.85;;;8.07;;
27857;SDS011;16852;51.446;6.528;2023-04-10T02:50:36;10.40;;;7.05;;
27857;SDS011;16852;51.446;6.528;2023-04-10T02:52:36;11.48;;;8.38;;
27857;SDS011;16852;51.446;6.528;2023-04-10T02:54:37;10.52;;;7.70;;
27857;SDS011;16852;51.446;6.528;2023-04-10T02:56:38;12.27;;;7.63;;
27857;SDS011;16852;51.446;6.528;2023-04-10T02:58:39;12.13;;;8.43;;
27857;SDS011;16852;51.446;6.528;2023-04-10T03:00:39;12.63;;;8.70;;
27857;SDS011;16852;51.446;6.528;2023-04-10T03:02:40;12.45;;;8.27;;
27857;SDS011;16852;51.446;6.528;2023-04-10T03:04:40;14.05;;;8.40;;
27857;SDS011;16852;51.446;6.528;2023-04-10T03:06:41;11.25;;;8.18;;
27857;SDS011;16852;51.446;6.528;2023-04-10T03:08:42;12.10;;;7.93;;
27857;SDS011;16852;51.446;6.528;2023-04-10T03:10:43;11.23;;;7.93;;
27857;SDS011;16852;51.446;6.528;2023-04-10T03:12:45;11.13;;;7.82;;
27857;SDS011;16852;51.446;6.528;2023-04-10T03:14:45;10.90;;;7.68;;
27857;SDS011;16852;51.446;6.528;2023-04-10T03:16:46;11.48;;;8.00;;
27857;SDS011;16852;51.446;6.528;2023-04-10T03:18:46;11.80;;;8.30;;
27857;SDS011;16852;51.446;6.528;2023-04-10T03:20:47;11.90;;;8.13;;
27857;SDS011;16852;51.446;6.528;2023-04-10T03:22:48;13.20;;;8.68;;
27857;SDS011;16852;51.446;6.528;2023-04-10T03:24:49;12.65;;;8.77;;
27857;SDS011;16852;51.446;6.528;2023-04-10T03:26:50;12.85;;;8.48;;
27857;SDS011;16852;51.446;6.528;2023-04-10T03:28:50;11.05;;;8.05;;
27857;SDS011;16852;51.446;6.528;2023-04-10T03:30:51;12.02;;;8.20;;
27857;SDS011;16852;51.446;6.528;2023-04-10T03:32:52;13.70;;;8.82;;
27857;SDS011;16852;51.446;6.528;2023-04-10T03:34:52;11.50;;;8.50;;
27857;SDS011;16852;51.446;6.528;2023-04-10T03:36:53;11.52;;;7.90;;
27857;SDS011;16852;51.446;6.528;2023-04-10T03:38:53;13.20;;;8.85;;
27857;SDS011;16852;51.446;6.528;2023-04-10T03:40:54;11.65;;;8.40;;
27857;SDS011;16852;51.446;6.528;2023-04-10T03:42:55;11.35;;;7.32;;
27857;SDS011;16852;51.446;6.528;2023-04-10T03:44:55;12.10;;;8.05;;
27857;SDS011;16852;51.446;6.528;2023-04-10T03:46:56;13.38;;;8.85;;
27857;SDS011;16852;51.446;6.528;2023-04-10T03:48:56;12.88;;;8.48;;
27857;SDS011;16852;51.446;6.528;2023-04-10T03:50:57;12.27;;;8.13;;
27857;SDS011;16852;51.446;6.528;2023-04-10T03:52:57;12.60;;;7.82;;
27857;SDS011;16852;51.446;6.528;2023-04-10T03:54:59;10.50;;;7.55;;
27857;SDS011;16852;51.446;6.528;2023-04-10T03:56:59;11.38;;;7.82;;
27857;SDS011;16852;51.446;6.528;2023-04-10T03:59:03;13.32;;;8.65;;
27857;SDS011;16852;51.446;6.528;2023-04-10T04:01:04;11.95;;;8.00;;
27857;SDS011;16852;51.446;6.528;2023-04-10T04:03:04;15.07;;;8.70;;
27857;SDS011;16852;51.446;6.528;2023-04-10T04:05:05;13.50;;;8.98;;
27857;SDS011;16852;51.446;6.528;2023-04-10T04:07:06;12.38;;;8.38;;
27857;SDS011;16852;51.446;6.528;2023-04-10T04:09:07;13.80;;;8.43;;
27857;SDS011;16852;51.446;6.528;2023-04-10T04:11:08;12.27;;;8.82;;
27857;SDS011;16852;51.446;6.528;2023-04-10T04:13:08;15.40;;;8.73;;
27857;SDS011;16852;51.446;6.528;2023-04-10T04:15:09;13.73;;;7.95;;
27857;SDS011;16852;51.446;6.528;2023-04-10T04:17:10;14.50;;;8.95;;
27857;SDS011;16852;51.446;6.528;2023-04-10T04:19:11;11.95;;;7.82;;
27857;SDS011;16852;51.446;6.528;2023-04-10T04:21:11;12.90;;;8.32;;
27857;SDS011;16852;51.446;6.528;2023-04-10T04:23:12;12.98;;;8.25;;
27857;SDS011;16852;51.446;6.528;2023-04-10T04:25:12;11.13;;;7.40;;
27857;SDS011;16852;51.446;6.528;2023-04-10T04:27:13;11.55;;;7.93;;
27857;SDS011;16852;51.446;6.528;2023-04-10T04:29:14;12.40;;;8.35;;
27857;SDS011;16852;51.446;6.528;2023-04-10T04:31:14;14.18;;;8.60;;
27857;SDS011;16852;51.446;6.528;2023-04-10T04:33:15;12.05;;;7.82;;
27857;SDS011;16852;51.446;6.528;2023-04-10T04:35:15;11.80;;;7.93;;
27857;SDS011;16852;51.446;6.528;2023-04-10T04:37:16;13.90;;;8.30;;
27857;SDS011;16852;51.446;6.528;2023-04-10T04:39:17;15.05;;;8.23;;
27857;SDS011;16852;51.446;6.528;2023-04-10T04:41:17;11.43;;;7.78;;
27857;SDS011;16852;51.446;6.528;2023-04-10T04:43:18;13.93;;;8.57;;
27857;SDS011;16852;51.446;6.528;2023-04-10T04:45:18;13.48;;;8.60;;
27857;SDS011;16852;51.446;6.528;2023-04-10T04:47:20;11.23;;;7.67;;
27857;SDS011;16852;51.446;6.528;2023-04-10T04:49:23;11.32;;;7.63;;
27857;SDS011;16852;51.446;6.528;2023-04-10T04:51:23;12.98;;;8.15;;
27857;SDS011;16852;51.446;6.528;2023-04-10T04:53:24;12.15;;;7.88;;
27857;SDS011;16852;51.446;6.528;2023-04-10T04:55:25;12.73;;;8.07;;
27857;SDS011;16852;51.446;6.528;2023-04-10T04:57:25;12.88;;;7.68;;
27857;SDS011;16852;51.446;6.528;2023-04-10T04:59:26;11.70;;;8.00;;
27857;SDS011;16852;51.446;6.528;2023-04-10T05:01:27;11.82;;;7.80;;
27857;SDS011;16852;51.446;6.528;2023-04-10T05:03:27;11.57;;;7.60;;
27857;SDS011;16852;51.446;6.528;2023-04-10T05:05:28;11.80;;;7.38;;
27857;SDS011;16852;51.446;6.528;2023-04-10T05:07:28;11.70;;;7.40;;
27857;SDS011;16852;51.446;6.528;2023-04-10T05:09:30;11.75;;;7.25;;
27857;SDS011;16852;51.446;6.528;2023-04-10T05:11:30;11.40;;;7.63;;
27857;SDS011;16852;51.446;6.528;2023-04-10T05:13:31;12.18;;;7.88;;
27857;SDS011;16852;51.446;6.528;2023-04-10T05:15:31;14.90;;;8.15;;
27857;SDS011;16852;51.446;6.528;2023-04-10T05:17:32;10.38;;;7.28;;
27857;SDS011;16852;51.446;6.528;2023-04-10T05:19:32;13.18;;;8.65;;
27857;SDS011;16852;51.446;6.528;2023-04-10T05:21:33;11.95;;;7.72;;
27857;SDS011;16852;51.446;6.528;2023-04-10T05:23:36;11.95;;;7.70;;
27857;SDS011;16852;51.446;6.528;2023-04-10T05:25:37;13.57;;;7.85;;
27857;SDS011;16852;51.446;6.528;2023-04-10T05:27:37;13.88;;;8.35;;
27857;SDS011;16852;51.446;6.528;2023-04-10T05:29:38;11.52;;;7.07;;
27857;SDS011;16852;51.446;6.528;2023-04-10T05:31:38;12.80;;;7.88;;
27857;SDS011;16852;51.446;6.528;2023-04-10T05:33:39;11.27;;;7.15;;
27857;SDS011;16852;51.446;6.528;2023-04-10T05:35:39;10.68;;;7.38;;
27857;SDS011;16852;51.446;6.528;2023-04-10T05:37:40;13.55;;;7.93;;
27857;SDS011;16852;51.446;6.528;2023-04-10T05:39:40;11.73;;;7.47;;
27857;SDS011;16852;51.446;6.528;2023-04-10T05:41:41;13.50;;;7.47;;
27857;SDS011;16852;51.446;6.528;2023-04-10T05:43:42;12.45;;;7.75;;
27857;SDS011;16852;51.446;6.528;2023-04-10T05:45:43;11.13;;;7.53;;
27857;SDS011;16852;51.446;6.528;2023-04-10T05:47:44;13.10;;;7.93;;
27857;SDS011;16852;51.446;6.528;2023-04-10T05:49:44;11.77;;;7.60;;
27857;SDS011;16852;51.446;6.528;2023-04-10T05:51:45;11.50;;;7.03;;
27857;SDS011;16852;51.446;6.528;2023-04-10T05:53:49;11.25;;;7.72;;
27857;SDS011;16852;51.446;6.528;2023-04-10T05:55:50;11.38;;;6.95;;
27857;SDS011;16852;51.446;6.528;2023-04-10T05:57:50;10.35;;;6.85;;
27857;SDS011;16852;51.446;6.528;2023-04-10T05:59:51;12.88;;;7.00;;
27857;SDS011;16852;51.446;6.528;2023-04-10T06:01:51;11.10;;;7.20;;
27857;SDS011;16852;51.446;6.528;2023-04-10T06:03:52;10.32;;;7.30;;
27857;SDS011;16852;51.446;6.528;2023-04-10T06:05:53;11.93;;;7.70;;
27857;SDS011;16852;51.446;6.528;2023-04-10T06:07:53;13.35;;;8.35;;
27857;SDS011;16852;51.446;6.528;2023-04-10T06:09:54;12.13;;;7.30;;
27857;SDS011;16852;51.446;6.528;2023-04-10T06:11:55;11.85;;;7.00;;
27857;SDS011;16852;51.446;6.528;2023-04-10T06:13:55;9.90;;;7.35;;
27857;SDS011;16852;51.446;6.528;2023-04-10T06:15:56;13.50;;;8.00;;
27857;SDS011;16852;51.446;6.528;2023-04-10T06:17:57;11.65;;;7.82;;
27857;SDS011;16852;51.446;6.528;2023-04-10T06:19:58;10.77;;;7.22;;
27857;SDS011;16852;51.446;6.528;2023-04-10T06:21:59;11.20;;;7.93;;
27857;SDS011;16852;51.446;6.528;2023-04-10T06:24:00;11.98;;;8.18;;
27857;SDS011;16852;51.446;6.528;2023-04-10T06:26:01;11.00;;;7.68;;
27857;SDS011;16852;51.446;6.528;2023-04-10T06:28:02;10.85;;;7.55;;
27857;SDS011;16852;51.446;6.528;2023-04-10T06:30:03;12.48;;;7.80;;
27857;SDS011;16852;51.446;6.528;2023-04-10T06:32:04;12.98;;;8.50;;
27857;SDS011;16852;51.446;6.528;2023-04-10T06:34:05;11.75;;;8.23;;
27857;SDS011;16852;51.446;6.528;2023-04-10T06:36:06;10.23;;;7.55;;
27857;SDS011;16852;51.446;6.528;2023-04-10T06:38:06;11.30;;;7.72;;
27857;SDS011;16852;51.446;6.528;2023-04-10T06:40:13;13.88;;;8.52;;
27857;SDS011;16852;51.446;6.528;2023-04-10T06:42:15;11.55;;;7.38;;
27857;SDS011;16852;51.446;6.528;2023-04-10T06:44:15;10.25;;;7.32;;
27857;SDS011;16852;51.446;6.528;2023-04-10T06:46:16;13.23;;;8.18;;
27857;SDS011;16852;51.446;6.528;2023-04-10T06:48:16;12.73;;;7.78;;
27857;SDS011;16852;51.446;6.528;2023-04-10T06:50:17;11.90;;;8.35;;
27857;SDS011;16852;51.446;6.528;2023-04-10T06:52:18;9.73;;;7.13;;
27857;SDS011;16852;51.446;6.528;2023-04-10T06:54:18;10.85;;;7.60;;
27857;SDS011;16852;51.446;6.528;2023-04-10T06:56:19;11.60;;;7.78;;
27857;SDS011;16852;51.446;6.528;2023-04-10T06:58:20;9.55;;;6.82;;
27857;SDS011;16852;51.446;6.528;2023-04-10T07:00:21;10.38;;;7.03;;
27857;SDS011;16852;51.446;6.528;2023-04-10T07:02:22;10.85;;;7.10;;
27857;SDS011;16852;51.446;6.528;2023-04-10T07:04:23;9.13;;;6.65;;
27857;SDS011;16852;51.446;6.528;2023-04-10T07:06:23;11.65;;;7.82;;
27857;SDS011;16852;51.446;6.528;2023-04-10T07:08:25;10.30;;;7.60;;
27857;SDS011;16852;51.446;6.528;2023-04-10T07:10:25;10.00;;;7.40;;
27857;SDS011;16852;51.446;6.528;2023-04-10T07:12:26;10.80;;;6.70;;
27857;SDS011;16852;51.446;6.528;2023-04-10T07:14:26;10.75;;;7.47;;
27857;SDS011;16852;51.446;6.528;2023-04-10T07:16:27;9.27;;;6.88;;
27857;SDS011;16852;51.446;6.528;2023-04-10T07:18:28;10.25;;;7.00;;
27857;SDS011;16852;51.446;6.528;2023-04-10T07:20:29;9.90;;;7.32;;
27857;SDS011;16852;51.446;6.528;2023-04-10T07:22:29;11.68;;;7.45;;
27857;SDS011;16852;51.446;6.528;2023-04-10T07:24:31;10.00;;;7.22;;
27857;SDS011;16852;51.446;6.528;2023-04-10T07:26:31;10.07;;;6.93;;
27857;SDS011;16852;51.446;6.528;2023-04-10T07:28:32;10.45;;;6.78;;
27857;SDS011;16852;51.446;6.528;2023-04-10T07:30:32;9.85;;;6.88;;
27857;SDS011;16852;51.446;6.528;2023-04-10T07:32:33;13.80;;;6.82;;
27857;SDS011;16852;51.446;6.528;2023-04-10T07:34:33;9.38;;;6.63;;
27857;SDS011;16852;51.446;6.528;2023-04-10T07:36:34;9.43;;;6.75;;
27857;SDS011;16852;51.446;6.528;2023-04-10T07:38:35;10.45;;;7.07;;
27857;SDS011;16852;51.446;6.528;2023-04-10T07:40:36;10.60;;;7.55;;
27857;SDS011;16852;51.446;6.528;2023-04-10T07:42:37;10.02;;;6.90;;
27857;SDS011;16852;51.446;6.528;2023-04-10T07:44:38;9.80;;;6.25;;
27857;SDS011;16852;51.446;6.528;2023-04-10T07:46:39;9.45;;;6.97;;
27857;SDS011;16852;51.446;6.528;2023-04-10T07:48:40;9.32;;;6.55;;
27857;SDS011;16852;51.446;6.528;2023-04-10T07:50:41;9.60;;;7.07;;
27857;SDS011;16852;51.446;6.528;2023-04-10T07:52:41;10.82;;;7.28;;
27857;SDS011;16852;51.446;6.528;2023-04-10T07:54:42;8.38;;;6.70;;
27857;SDS011;16852;51.446;6.528;2023-04-10T07:56:42;8.27;;;5.95;;
27857;SDS011;16852;51.446;6.528;2023-04-10T07:58:43;9.45;;;6.65;;
27857;SDS011;16852;51.446;6.528;2023-04-10T08:00:44;8.57;;;6.50;;
27857;SDS011;16852;51.446;6.528;2023-04-10T08:02:45;8.27;;;6.18;;
27857;SDS011;16852;51.446;6.528;2023-04-10T08:04:46;8.77;;;6.15;;
27857;SDS011;16852;51.446;6.528;2023-04-10T08:06:46;8.93;;;5.78;;
27857;SDS011;16852;51.446;6.528;2023-04-10T08:08:48;10.03;;;6.23;;
27857;SDS011;16852;51.446;6.528;2023-04-10T08:10:51;7.75;;;6.00;;
27857;SDS011;16852;51.446;6.528;2023-04-10T08:12:51;9.35;;;6.40;;
27857;SDS011;16852;51.446;6.528;2023-04-10T08:14:52;11.45;;;5.95;;
27857;SDS011;16852;51.446;6.528;2023-04-10T08:16:52;8.15;;;5.50;;
27857;SDS011;16852;51.446;6.528;2023-04-10T08:18:53;8.02;;;5.70;;
27857;SDS011;16852;51.446;6.528;2023-04-10T08:20:54;7.65;;;5.75;;
27857;SDS011;16852;51.446;6.528;2023-04-10T08:22:55;7.55;;;5.55;;
27857;SDS011;16852;51.446;6.528;2023-04-10T08:24:55;8.80;;;6.03;;
27857;SDS011;16852;51.446;6.528;2023-04-10T08:26:56;7.82;;;5.65;;
27857;SDS011;16852;51.446;6.528;2023-04-10T08:28:57;7.05;;;5.25;;
27857;SDS011;16852;51.446;6.528;2023-04-10T08:30:58;11.30;;;6.22;;
27857;SDS011;16852;51.446;6.528;2023-04-10T08:32:59;10.45;;;5.88;;
27857;SDS011;16852;51.446;6.528;2023-04-10T08:34:59;8.52;;;5.68;;
27857;SDS011;16852;51.446;6.528;2023-04-10T08:37:03;7.35;;;5.47;;
27857;SDS011;16852;51.446;6.528;2023-04-10T08:39:05;7.65;;;5.53;;
27857;SDS011;16852;51.446;6.528;2023-04-10T08:41:05;7.75;;;5.40;;
27857;SDS011;16852;51.446;6.528;2023-04-10T08:43:08;7.20;;;5.18;;
27857;SDS011;16852;51.446;6.528;2023-04-10T08:45:09;9.15;;;5.63;;
27857;SDS011;16852;51.446;6.528;2023-04-10T08:47:10;8.38;;;5.50;;
27857;SDS011;16852;51.446;6.528;2023-04-10T08:49:16;6.47;;;4.93;;
27857;SDS011;16852;51.446;6.528;2023-04-10T08:53:31;8.85;;;5.78;;
27857;SDS011;16852;51.446;6.528;2023-04-10T08:55:40;7.10;;;5.28;;
27857;SDS011;16852;51.446;6.528;2023-04-10T08:57:41;6.63;;;4.95;;
27857;SDS011;16852;51.446;6.528;2023-04-10T08:59:42;6.35;;;5.00;;
27857;SDS011;16852;51.446;6.528;2023-04-10T09:01:44;6.68;;;5.35;;
27857;SDS011;16852;51.446;6.528;2023-04-10T09:03:46;7.47;;;5.03;;
27857;SDS011;16852;51.446;6.528;2023-04-10T09:05:47;5.88;;;4.43;;
27857;SDS011;16852;51.446;6.528;2023-04-10T09:07:48;7.82;;;4.63;;
27857;SDS011;16852;51.446;6.528;2023-04-10T09:09:48;6.88;;;5.40;;
27857;SDS011;16852;51.446;6.528;2023-04-10T09:13:54;6.13;;;4.70;;
27857;SDS011;16852;51.446;6.528;2023-04-10T09:15:57;6.95;;;5.20;;
27857;SDS011;16852;51.446;6.528;2023-04-10T09:17:58;6.15;;;4.63;;
27857;SDS011;16852;51.446;6.528;2023-04-10T09:20:00;7.75;;;5.53;;
27857;SDS011;16852;51.446;6.528;2023-04-10T09:22:01;5.80;;;4.60;;
27857;SDS011;16852;51.446;6.528;2023-04-10T09:24:02;5.90;;;4.47;;
27857;SDS011;16852;51.446;6.528;2023-04-10T09:26:22;6.97;;;4.72;;
27857;SDS011;16852;51.446;6.528;2023-04-10T09:28:24;6.60;;;4.70;;
27857;SDS011;16852;51.446;6.528;2023-04-10T09:30:31;5.93;;;4.50;;
27857;SDS011;16852;51.446;6.528;2023-04-10T09:34:50;7.57;;;4.78;;
27857;SDS011;16852;51.446;6.528;2023-04-10T09:36:53;5.88;;;4.53;;
27857;SDS011;16852;51.446;6.528;2023-04-10T09:41:05;8.30;;;4.50;;
27857;SDS011;16852;51.446;6.528;2023-04-10T09:43:17;8.82;;;4.78;;
27857;SDS011;16852;51.446;6.528;2023-04-10T09:45:22;6.03;;;4.50;;
27857;SDS011;16852;51.446;6.528;2023-04-10T09:47:22;11.90;;;4.70;;
27857;SDS011;16852;51.446;6.528;2023-04-10T09:49:23;6.18;;;3.97;;
27857;SDS011;16852;51.446;6.528;2023-04-10T09:51:30;6.47;;;4.05;;
27857;SDS011;16852;51.446;6.528;2023-04-10T09:53:32;5.75;;;4.05;;
27857;SDS011;16852;51.446;6.528;2023-04-10T09:55:49;7.35;;;4.05;;
27857;SDS011;16852;51.446;6.528;2023-04-10T09:57:50;5.15;;;3.72;;
27857;SDS011;16852;51.446;6.528;2023-04-10T09:59:55;5.57;;;3.95;;
27857;SDS011;16852;51.446;6.528;2023-04-10T10:01:56;4.80;;;3.72;;
27857;SDS011;16852;51.446;6.528;2023-04-10T10:03:57;6.55;;;4.57;;
27857;SDS011;16852;51.446;6.528;2023-04-10T10:06:02;4.93;;;3.92;;
27857;SDS011;16852;51.446;6.528;2023-04-10T10:08:03;5.20;;;3.75;;
27857;SDS011;16852;51.446;6.528;2023-04-10T10:10:05;5.30;;;4.30;;
27857;SDS011;16852;51.446;6.528;2023-04-10T10:12:08;5.10;;;3.70;;
27857;SDS011;16852;51.446;6.528;2023-04-10T10:14:12;6.32;;;4.07;;
27857;SDS011;16852;51.446;6.528;2023-04-10T10:16:33;5.65;;;4.28;;
27857;SDS011;16852;51.446;6.528;2023-04-10T10:18:50;5.90;;;4.45;;
27857;SDS011;16852;51.446;6.528;2023-04-10T10:20:58;6.82;;;4.22;;
27857;SDS011;16852;51.446;6.528;2023-04-10T10:23:03;4.88;;;3.80;;
27857;SDS011;16852;51.446;6.528;2023-04-10T10:25:05;5.43;;;3.95;;
27857;SDS011;16852;51.446;6.528;2023-04-10T10:27:08;6.15;;;4.35;;
27857;SDS011;16852;51.446;6.528;2023-04-10T10:29:08;5.55;;;4.13;;
27857;SDS011;16852;51.446;6.528;2023-04-10T10:31:13;5.28;;;3.70;;
27857;SDS011;16852;51.446;6.528;2023-04-10T10:33:16;7.82;;;4.18;;
27857;SDS011;16852;51.446;6.528;2023-04-10T10:35:17;5.05;;;4.15;;
27857;SDS011;16852;51.446;6.528;2023-04-10T10:37:19;5.70;;;3.92;;
27857;SDS011;16852;51.446;6.528;2023-04-10T10:39:23;4.23;;;3.37;;
27857;SDS011;16852;51.446;6.528;2023-04-10T10:46:31;3.83;;;3.30;;
27857;SDS011;16852;51.446;6.528;2023-04-10T10:48:36;4.70;;;3.63;;
27857;SDS011;16852;51.446;6.528;2023-04-10T10:50:48;6.00;;;3.92;;
27857;SDS011;16852;51.446;6.528;2023-04-10T10:52:56;5.05;;;3.78;;
27857;SDS011;16852;51.446;6.528;2023-04-10T10:54:56;5.10;;;3.85;;
27857;SDS011;16852;51.446;6.528;2023-04-10T10:56:57;5.75;;;3.83;;
27857;SDS011;16852;51.446;6.528;2023-04-10T10:58:58;4.40;;;3.47;;
27857;SDS011;16852;51.446;6.528;2023-04-10T11:01:04;5.72;;;3.67;;
27857;SDS011;16852;51.446;6.528;2023-04-10T11:05:47;5.80;;;3.78;;
27857;SDS011;16852;51.446;6.528;2023-04-10T11:09:59;4.28;;;3.10;;
27857;SDS011;16852;51.446;6.528;2023-04-10T11:12:00;4.88;;;3.42;;
27857;SDS011;16852;51.446;6.528;2023-04-10T11:14:21;4.65;;;3.65;;
27857;SDS011;16852;51.446;6.528;2023-04-10T11:23:08;4.32;;;3.50;;
27857;SDS011;16852;51.446;6.528;2023-04-10T11:25:10;3.45;;;2.78;;
27857;SDS011;16852;51.446;6.528;2023-04-10T11:27:35;5.10;;;3.50;;
27857;SDS011;16852;51.446;6.528;2023-04-10T11:29:47;4.72;;;3.25;;
27857;SDS011;16852;51.446;6.528;2023-04-10T11:32:03;4.40;;;3.15;;
27857;SDS011;16852;51.446;6.528;2023-04-10T11:34:06;4.25;;;3.30;;
27857;SDS011;16852;51.446;6.528;2023-04-10T11:36:07;5.97;;;3.75;;
27857;SDS011;16852;51.446;6.528;2023-04-10T11:38:09;5.10;;;3.47;;
27857;SDS011;16852;51.446;6.528;2023-04-10T11:40:11;4.72;;;3.38;;
27857;SDS011;16852;51.446;6.528;2023-04-10T11:42:12;4.88;;;3.80;;
27857;SDS011;16852;51.446;6.528;2023-04-10T11:46:30;3.55;;;3.10;;
27857;SDS011;16852;51.446;6.528;2023-04-10T11:48:35;4.32;;;3.17;;
27857;SDS011;16852;51.446;6.528;2023-04-10T11:50:36;3.58;;;2.95;;
27857;SDS011;16852;51.446;6.528;2023-04-10T11:52:37;3.92;;;3.10;;
27857;SDS011;16852;51.446;6.528;2023-04-10T11:54:37;3.97;;;3.10;;
27857;SDS011;16852;51.446;6.528;2023-04-10T11:56:58;6.18;;;3.30;;
27857;SDS011;16852;51.446;6.528;2023-04-10T11:59:03;5.25;;;2.95;;
27857;SDS011;16852;51.446;6.528;2023-04-10T12:01:08;4.80;;;3.28;;
27857;SDS011;16852;51.446;6.528;2023-04-10T12:03:13;4.07;;;2.80;;
27857;SDS011;16852;51.446;6.528;2023-04-10T12:05:14;5.32;;;3.03;;
27857;SDS011;16852;51.446;6.528;2023-04-10T12:07:15;3.70;;;3.08;;
27857;SDS011;16852;51.446;6.528;2023-04-10T12:09:16;4.10;;;3.00;;
27857;SDS011;16852;51.446;6.528;2023-04-10T12:11:21;4.50;;;2.92;;
27857;SDS011;16852;51.446;6.528;2023-04-10T12:13:25;3.92;;;2.88;;
27857;SDS011;16852;51.446;6.528;2023-04-10T12:15:27;5.73;;;3.40;;
27857;SDS011;16852;51.446;6.528;2023-04-10T12:17:29;4.25;;;2.90;;
27857;SDS011;16852;51.446;6.528;2023-04-10T12:19:31;3.85;;;3.03;;
27857;SDS011;16852;51.446;6.528;2023-04-10T12:21:35;3.90;;;2.90;;
27857;SDS011;16852;51.446;6.528;2023-04-10T12:23:37;3.78;;;2.80;;
27857;SDS011;16852;51.446;6.528;2023-04-10T12:25:38;3.15;;;2.50;;
27857;SDS011;16852;51.446;6.528;2023-04-10T12:27:46;3.53;;;2.70;;
27857;SDS011;16852;51.446;6.528;2023-04-10T12:29:50;4.35;;;2.85;;
27857;SDS011;16852;51.446;6.528;2023-04-10T12:31:52;5.15;;;2.97;;
27857;SDS011;16852;51.446;6.528;2023-04-10T12:33:52;3.40;;;3.05;;
27857;SDS011;16852;51.446;6.528;2023-04-10T12:35:56;4.28;;;3.10;;
27857;SDS011;16852;51.446;6.528;2023-04-10T12:37:58;4.80;;;2.78;;
27857;SDS011;16852;51.446;6.528;2023-04-10T12:40:05;4.22;;;2.88;;
27857;SDS011;16852;51.446;6.528;2023-04-10T12:42:13;3.30;;;2.40;;
27857;SDS011;16852;51.446;6.528;2023-04-10T12:44:15;3.60;;;2.78;;
27857;SDS011;16852;51.446;6.528;2023-04-10T12:46:27;3.58;;;2.60;;
27857;SDS011;16852;51.446;6.528;2023-04-10T12:48:28;3.65;;;2.67;;